createdAt,value
2017-09-02T20:17:18.877Z,14.40
2017-09-02T20:19:45.186Z,14.30
2017-09-02T20:22:11.579Z,13.90
2017-09-02T20:24:38.393Z,14.70
2017-09-02T20:27:04.705Z,18.33
2017-09-02T20:29:31.018Z,15.00
2017-09-02T20:31:57.498Z,13.20
2017-09-02T20:34:23.970Z,13.17
2017-09-02T20:36:50.301Z,16.63
2017-09-02T20:39:16.609Z,13.60
2017-09-02T20:41:42.983Z,14.20
2017-09-02T20:44:09.319Z,14.93
2017-09-02T20:46:35.701Z,15.27
2017-09-02T20:49:02.020Z,14.07
2017-09-02T20:51:28.363Z,16.93
2017-09-02T20:53:54.763Z,17.93
2017-09-02T20:56:21.057Z,18.10
2017-09-02T20:58:47.413Z,17.60
2017-09-02T21:01:13.743Z,17.83
2017-09-02T21:03:40.239Z,16.63
2017-09-02T21:06:06.894Z,17.57
2017-09-02T21:08:33.174Z,14.40
2017-09-02T21:11:00.404Z,13.90
2017-09-02T21:13:27.136Z,17.57
2017-09-02T21:15:54.191Z,20.20
2017-09-02T21:18:21.368Z,20.33
2017-09-02T21:20:47.633Z,22.27
2017-09-02T21:23:13.970Z,25.17
2017-09-02T21:25:40.251Z,28.47
2017-09-02T21:28:06.485Z,32.20
2017-09-02T21:30:32.885Z,31.80
2017-09-02T21:32:59.196Z,27.43
2017-09-02T21:35:25.638Z,25.70
2017-09-02T21:37:52.062Z,22.10
2017-09-02T21:40:18.390Z,18.93
2017-09-02T21:42:44.823Z,19.43
2017-09-02T21:45:11.048Z,18.77
2017-09-02T21:47:37.705Z,19.60
2017-09-02T21:50:04.050Z,18.83
2017-09-02T21:52:30.397Z,22.00
2017-09-02T21:54:56.821Z,24.90
2017-09-02T21:57:23.347Z,21.60
2017-09-02T21:59:49.835Z,21.33
2017-09-02T22:02:16.082Z,21.00
2017-09-02T22:04:42.362Z,19.30
2017-09-02T22:07:08.651Z,18.87
2017-09-02T22:09:34.921Z,22.90
2017-09-02T22:12:01.878Z,24.30
2017-09-02T22:14:28.351Z,25.53
2017-09-02T22:16:54.709Z,27.00
2017-09-02T22:19:21.018Z,22.53
2017-09-02T22:21:47.369Z,21.50
2017-09-02T22:24:13.752Z,21.97
2017-09-02T22:26:39.989Z,24.10
2017-09-02T22:29:06.269Z,22.60
2017-09-02T22:31:32.588Z,23.00
2017-09-02T22:33:58.926Z,20.80
2017-09-02T22:36:25.266Z,19.93
2017-09-02T22:38:51.558Z,17.60
2017-09-02T22:41:17.846Z,21.63
2017-09-02T22:43:44.179Z,22.70
2017-09-02T22:46:10.432Z,23.57
2017-09-02T22:48:36.758Z,20.03
2017-09-02T22:51:03.016Z,19.10
2017-09-02T22:53:29.306Z,18.27
2017-09-02T22:55:55.699Z,17.07
2017-09-02T22:58:21.977Z,17.10
2017-09-02T23:00:48.352Z,14.80
2017-09-02T23:03:14.578Z,18.73
2017-09-02T23:05:40.892Z,17.40
2017-09-02T23:08:07.154Z,17.10
2017-09-02T23:10:33.562Z,15.90
2017-09-02T23:12:59.947Z,16.80
2017-09-02T23:15:26.404Z,15.90
2017-09-02T23:17:52.785Z,16.57
2017-09-02T23:20:19.125Z,16.90
2017-09-02T23:22:45.522Z,15.30
2017-09-02T23:25:11.832Z,15.60
2017-09-02T23:27:38.158Z,13.40
2017-09-02T23:30:04.681Z,14.00
2017-09-02T23:32:31.080Z,17.83
2017-09-02T23:34:57.333Z,17.00
2017-09-02T23:37:23.628Z,15.47
2017-09-02T23:39:49.884Z,16.57
2017-09-02T23:42:16.255Z,16.23
2017-09-02T23:44:42.580Z,16.60
2017-09-02T23:47:08.826Z,14.40
2017-09-02T23:49:35.283Z,18.67
2017-09-02T23:52:01.553Z,21.43
2017-09-02T23:54:27.879Z,18.93
2017-09-02T23:56:54.264Z,18.27
2017-09-02T23:59:20.501Z,16.77
